Vinalhaven, ME (04863)

8:24 AM EDT on August 04, 2015 (GMT -0400)
South Shore Road | | Change Station
CLOSE
Current Station
Personal Weather Station
Location: North Haven, ME
Elevation: 121 ft
Nearby Weather Stations

Elev 121 ft 44.16 °N, 68.83 °W | Updated 48 minutes ago

Mostly Cloudy
Mostly Cloudy
65.5 °F
Feels Like 65.5 °F
N
0.0
Wind Variable Wind from West
Gusts 4.0 mph

Today
High -- | Low -- °F
--% Chance of Precip.
Yesterday
High -- | Low -- °F
Precip. -- in
5:26 AM 7:55 PM
Waning Gibbous, 78% visible
Pressure 29.81 in
Visibility 4.0 miles
Clouds Overcast 300 ft
Dew Point 64 °F
Humidity 95%
Rainfall 0.00 in
Snow Depth Not available.
UV 1 out of 12
Pollen 4.20 out of 12
Air Quality Not available.
Flu Activity Not available.
METAR KRKD 041215Z AUTO 00000KT 4SM OVC003 18/17 A2981 RMK AO1

More Conditions Fewer Conditions

Pressure 29.81 in
Visibility 4.0 miles
Clouds Overcast 300 ft
Dew Point 64 °F
Humidity 95%
Rainfall 0.00 in
Snow Depth Not available.
UV 1 out of 12
Pollen 4.20 out of 12
Air Quality Not available.
Flu Activity Not available.
METAR KRKD 041215Z AUTO 00000KT 4SM OVC003 18/17 A2981 RMK AO1

More Conditions Fewer Conditions

10-Day Weather Forecast

×

Almanac

Astronomy

Aug. 04, 2015 Rise Set
Actual Time
Civil Twilight
Nautical Twilight
Astronomical Twilight
Moon
Length of Visible Light
Length of Day
Tomorrow will be .
, % of the Moon is Illuminated

Today's Extremes

State Highs State Lows

Community

WunderPhotos

Upload Photos

1,843,910 photos uploaded!

WunderBlogs® & News

Nearby

Air Quality

  Air Quality AQ Index Pollutant
Not available.

Snow Depth

Station Depth Elevation

Earthquake Activity

City Distance Mag. Time & Date
Minimum magnitude displayed is 2.5.

Coastal Water Temperatures

Place Temperature

Stations

Nearby Weather Stations

Station Location Temp. Windchill Dew Point Humidity Wind Precip. Elev Updated Type